createdAt,value
2018-06-29T00:04:24.842Z,16.27
2018-06-29T00:09:19.535Z,16.28
2018-06-29T00:14:14.206Z,16.34
2018-06-29T00:19:08.864Z,16.43
2018-06-29T00:24:03.606Z,16.40
2018-06-29T00:28:58.274Z,16.43
2018-06-29T00:33:52.918Z,16.38
2018-06-29T00:38:47.546Z,16.49
2018-06-29T00:43:42.799Z,16.47
2018-06-29T00:48:37.385Z,16.40
2018-06-29T00:53:31.970Z,16.47
2018-06-29T00:58:26.572Z,16.35
2018-06-29T01:03:21.198Z,16.49
2018-06-29T01:08:15.943Z,16.45
2018-06-29T01:13:10.563Z,16.46
2018-06-29T01:18:05.330Z,16.45
2018-06-29T01:22:59.919Z,16.52
2018-06-29T01:27:54.531Z,16.49
2018-06-29T01:32:49.159Z,16.55
2018-06-29T01:37:43.813Z,16.64
2018-06-29T01:42:38.410Z,16.52
2018-06-29T01:47:33.063Z,16.45
2018-06-29T01:52:27.658Z,16.45
2018-06-29T01:57:22.308Z,16.45
2018-06-29T02:02:16.956Z,16.43
2018-06-29T02:07:11.542Z,16.25
2018-06-29T02:12:06.346Z,16.21
2018-06-29T02:17:01.039Z,16.29
2018-06-29T02:21:55.702Z,16.31
2018-06-29T02:26:50.315Z,16.15
2018-06-29T02:31:44.945Z,16.24
2018-06-29T02:36:39.559Z,16.41
2018-06-29T02:41:34.223Z,16.35
2018-06-29T02:46:28.943Z,16.52
2018-06-29T02:51:23.583Z,16.38
2018-06-29T02:56:18.243Z,16.44
2018-06-29T03:01:12.904Z,16.49
2018-06-29T03:06:07.560Z,16.51
2018-06-29T03:11:02.192Z,16.57
2018-06-29T03:15:56.857Z,16.56
2018-06-29T03:20:51.554Z,16.48
2018-06-29T03:25:46.290Z,16.50
2018-06-29T03:30:40.946Z,16.54
2018-06-29T03:35:35.579Z,16.50
2018-06-29T03:40:30.331Z,16.65
2018-06-29T03:45:24.926Z,16.58
2018-06-29T03:50:19.523Z,16.56
2018-06-29T03:55:14.127Z,16.67
2018-06-29T04:00:08.823Z,16.56
2018-06-29T04:05:03.447Z,16.49
2018-06-29T04:09:58.046Z,16.51
2018-06-29T04:14:52.602Z,16.57
2018-06-29T04:19:47.164Z,16.70
2018-06-29T04:24:41.921Z,16.47
2018-06-29T04:29:36.554Z,16.52
2018-06-29T04:34:31.159Z,16.62
2018-06-29T04:39:25.764Z,16.76
2018-06-29T04:44:20.382Z,16.74
2018-06-29T04:49:15.044Z,16.93
2018-06-29T04:54:09.583Z,16.87
2018-06-29T04:59:04.195Z,16.96
2018-06-29T05:03:58.810Z,16.93
2018-06-29T05:08:53.426Z,16.87
2018-06-29T05:13:48.002Z,16.94
2018-06-29T05:18:42.600Z,17.18
2018-06-29T05:23:37.191Z,17.37
2018-06-29T05:28:31.776Z,17.34
2018-06-29T05:33:26.354Z,17.20
2018-06-29T05:38:21.829Z,17.15
2018-06-29T05:43:16.374Z,17.18
2018-06-29T05:48:10.988Z,17.52
2018-06-29T05:53:05.795Z,17.47
2018-06-29T05:58:00.380Z,17.64
2018-06-29T06:02:54.971Z,17.99
2018-06-29T06:07:49.570Z,17.90
2018-06-29T06:12:44.150Z,17.98
2018-06-29T06:17:38.723Z,18.09
2018-06-29T06:22:33.466Z,18.26
2018-06-29T06:27:28.162Z,18.11
2018-06-29T06:32:22.882Z,18.04
2018-06-29T06:37:17.868Z,18.10
2018-06-29T06:42:12.518Z,18.12
2018-06-29T06:47:07.181Z,17.92
2018-06-29T06:52:01.913Z,17.99
2018-06-29T06:56:56.595Z,17.85
2018-06-29T07:01:51.211Z,17.65
2018-06-29T07:06:45.873Z,17.76
2018-06-29T07:11:40.594Z,17.93
2018-06-29T07:16:35.269Z,18.03
2018-06-29T07:21:29.908Z,18.07
2018-06-29T07:26:24.605Z,18.04
2018-06-29T07:31:19.289Z,18.21
2018-06-29T07:36:13.978Z,18.62
2018-06-29T07:41:08.560Z,18.72
2018-06-29T07:46:03.184Z,19.17
2018-06-29T07:50:57.833Z,19.77
2018-06-29T07:55:52.534Z,20.03
2018-06-29T08:00:47.182Z,20.24
2018-06-29T08:05:41.745Z,20.65
2018-06-29T08:10:36.529Z,20.45
2018-06-29T08:15:31.523Z,20.36
2018-06-29T08:20:26.134Z,20.84
2018-06-29T08:25:20.838Z,20.61
2018-06-29T08:30:15.327Z,20.32
2018-06-29T08:35:10.976Z,20.06
2018-06-29T08:40:06.335Z,20.29
2018-06-29T08:45:00.991Z,21.21
2018-06-29T08:49:55.635Z,22.05
2018-06-29T08:54:50.278Z,21.90
2018-06-29T08:59:44.944Z,22.05
2018-06-29T09:04:39.289Z,22.38
2018-06-29T09:09:33.952Z,22.49
2018-06-29T09:14:28.745Z,22.78
2018-06-29T09:19:23.379Z,22.20
2018-06-29T09:24:18.320Z,22.20
2018-06-29T09:29:13.087Z,21.78
2018-06-29T09:34:07.773Z,21.62
2018-06-29T09:39:02.393Z,21.21
2018-06-29T09:43:57.011Z,20.93
2018-06-29T09:48:51.600Z,21.27
2018-06-29T09:53:46.187Z,21.58
2018-06-29T09:58:40.800Z,21.80
2018-06-29T10:03:35.422Z,21.70
2018-06-29T10:08:30.691Z,21.06
2018-06-29T10:13:25.283Z,20.97
2018-06-29T10:18:19.964Z,21.25
2018-06-29T10:23:14.579Z,21.31
2018-06-29T10:28:09.287Z,21.48
2018-06-29T10:33:04.678Z,21.71
2018-06-29T10:37:59.621Z,21.55
2018-06-29T10:42:54.228Z,21.24
2018-06-29T10:47:48.803Z,21.28
2018-06-29T10:52:43.497Z,21.57
2018-06-29T10:57:38.129Z,22.18
2018-06-29T11:02:32.755Z,23.23
2018-06-29T11:07:27.420Z,23.09
2018-06-29T11:12:22.067Z,22.70
2018-06-29T11:17:16.872Z,22.38
2018-06-29T11:22:11.462Z,22.67
2018-06-29T11:27:06.038Z,23.65
2018-06-29T11:32:00.699Z,24.43
2018-06-29T11:36:56.910Z,23.64
2018-06-29T11:41:51.540Z,23.53
2018-06-29T11:46:46.172Z,24.50
2018-06-29T11:51:40.788Z,24.19
2018-06-29T11:56:35.383Z,24.55
2018-06-29T12:01:30.223Z,24.90
2018-06-29T12:06:24.805Z,24.87
2018-06-29T12:11:19.450Z,24.83
2018-06-29T12:16:14.024Z,24.65
2018-06-29T12:21:08.644Z,24.68
2018-06-29T12:26:04.086Z,25.25
2018-06-29T12:30:58.696Z,24.66
2018-06-29T12:35:53.289Z,24.96
2018-06-29T12:40:47.911Z,25.05
2018-06-29T12:45:42.535Z,25.00
2018-06-29T12:50:37.255Z,25.22
2018-06-29T12:55:31.911Z,24.89
2018-06-29T13:00:26.555Z,24.94
2018-06-29T13:05:21.233Z,24.35
2018-06-29T13:10:15.791Z,24.86
2018-06-29T13:15:10.427Z,25.09
2018-06-29T13:20:05.679Z,25.66
2018-06-29T13:25:00.375Z,25.77
2018-06-29T13:29:54.927Z,25.49
2018-06-29T13:34:49.537Z,25.50
2018-06-29T13:39:44.146Z,25.25
2018-06-29T13:44:38.785Z,25.08
2018-06-29T13:49:33.397Z,25.23
2018-06-29T13:54:27.990Z,25.30
2018-06-29T13:59:22.619Z,25.37
2018-06-29T14:04:17.256Z,25.61
2018-06-29T14:09:11.865Z,25.72
2018-06-29T14:14:06.639Z,25.30
2018-06-29T14:19:01.222Z,24.89
2018-06-29T14:23:55.815Z,25.21
2018-06-29T14:28:50.453Z,25.41
2018-06-29T14:33:45.036Z,25.36
2018-06-29T14:38:39.698Z,25.16
2018-06-29T14:43:34.267Z,24.82
2018-06-29T14:48:28.901Z,24.76
2018-06-29T14:53:23.615Z,25.11
2018-06-29T14:58:18.218Z,25.23
2018-06-29T15:03:12.854Z,25.35
2018-06-29T15:08:07.570Z,25.86
2018-06-29T15:13:02.114Z,25.55
2018-06-29T15:17:56.748Z,25.44
2018-06-29T15:22:51.353Z,25.66
2018-06-29T15:27:45.965Z,25.83
2018-06-29T15:32:40.572Z,25.41
2018-06-29T15:37:35.189Z,25.85
2018-06-29T15:42:29.871Z,26.22
2018-06-29T15:47:24.452Z,26.17
2018-06-29T15:52:19.168Z,26.61
2018-06-29T15:57:13.802Z,26.05
2018-06-29T16:02:08.582Z,25.74
2018-06-29T16:07:03.259Z,25.78
2018-06-29T16:11:57.843Z,25.65
2018-06-29T16:16:52.476Z,25.53
2018-06-29T16:21:46.746Z,25.87
2018-06-29T16:26:41.331Z,26.01
2018-06-29T16:31:35.906Z,25.98
2018-06-29T16:36:30.533Z,25.68
2018-06-29T16:41:25.127Z,25.41
2018-06-29T16:46:19.722Z,25.94
2018-06-29T16:51:14.351Z,25.85
2018-06-29T16:56:09.142Z,25.99
2018-06-29T17:01:03.796Z,26.02
2018-06-29T17:05:58.393Z,25.82
2018-06-29T17:10:52.987Z,25.61
2018-06-29T17:15:47.578Z,25.28
2018-06-29T17:20:42.906Z,25.10
2018-06-29T17:25:37.556Z,25.21
2018-06-29T17:30:32.198Z,25.06
2018-06-29T17:35:26.814Z,24.83
2018-06-29T17:40:21.133Z,24.68
2018-06-29T17:45:15.767Z,24.59
2018-06-29T17:50:10.418Z,24.61
2018-06-29T17:55:05.247Z,24.58
2018-06-29T17:59:59.534Z,24.54
2018-06-29T18:04:54.160Z,24.59
2018-06-29T18:09:48.813Z,24.36
2018-06-29T18:14:43.597Z,24.29
2018-06-29T18:19:38.213Z,24.15
2018-06-29T18:24:32.899Z,24.15
2018-06-29T18:29:27.250Z,23.97
2018-06-29T18:34:21.905Z,24.07
2018-06-29T18:39:16.658Z,23.81
2018-06-29T18:44:11.278Z,23.88
2018-06-29T18:49:07.182Z,23.85
2018-06-29T18:54:01.815Z,23.80
2018-06-29T18:58:56.580Z,23.79
2018-06-29T19:03:51.205Z,23.32
2018-06-29T19:08:45.859Z,23.19
2018-06-29T19:13:40.497Z,23.22
2018-06-29T19:18:35.215Z,23.16
2018-06-29T19:23:29.812Z,23.15
2018-06-29T19:28:24.409Z,22.93
2018-06-29T19:33:19.075Z,22.92
2018-06-29T19:38:13.770Z,22.81
2018-06-29T19:43:08.445Z,22.65
2018-06-29T19:48:03.039Z,22.59
2018-06-29T19:52:57.797Z,22.49
2018-06-29T19:57:52.448Z,22.32
2018-06-29T20:02:47.160Z,22.29
2018-06-29T20:07:41.877Z,22.16
2018-06-29T20:12:36.503Z,22.02
2018-06-29T20:17:31.320Z,22.10
2018-06-29T20:22:26.899Z,21.93
2018-06-29T20:27:21.570Z,21.81
2018-06-29T20:32:16.192Z,21.72
2018-06-29T20:37:10.852Z,21.69
2018-06-29T20:42:05.579Z,21.55
2018-06-29T20:47:00.206Z,21.38
2018-06-29T20:51:54.839Z,21.31
2018-06-29T20:56:49.569Z,21.29
2018-06-29T21:01:44.259Z,21.14
2018-06-29T21:06:38.966Z,21.22
2018-06-29T21:11:33.634Z,21.22
2018-06-29T21:16:28.282Z,21.14
2018-06-29T21:21:22.894Z,21.08
2018-06-29T21:26:17.585Z,21.05
2018-06-29T21:31:12.273Z,20.96
2018-06-29T21:36:06.923Z,20.86
2018-06-29T21:41:01.590Z,20.76
2018-06-29T21:45:56.246Z,20.70
2018-06-29T21:50:50.846Z,20.60
2018-06-29T21:55:45.452Z,20.51
2018-06-29T22:00:41.628Z,20.44
2018-06-29T22:05:36.823Z,20.40
2018-06-29T22:10:31.506Z,20.24
2018-06-29T22:15:26.100Z,20.20
2018-06-29T22:20:21.051Z,20.13
2018-06-29T22:25:15.713Z,19.88
2018-06-29T22:30:10.397Z,19.89
2018-06-29T22:35:05.118Z,19.89
2018-06-29T22:39:59.791Z,19.73
2018-06-29T22:44:54.411Z,19.82
2018-06-29T22:49:49.072Z,19.59
2018-06-29T22:54:43.741Z,19.26
2018-06-29T22:59:38.469Z,19.46
2018-06-29T23:04:33.230Z,19.35
2018-06-29T23:09:27.926Z,19.33
2018-06-29T23:14:22.592Z,19.23
2018-06-29T23:19:17.249Z,19.29
2018-06-29T23:24:11.858Z,19.15
2018-06-29T23:29:06.535Z,19.02
2018-06-29T23:34:01.150Z,19.04
2018-06-29T23:38:55.880Z,18.97
2018-06-29T23:43:50.197Z,18.98
2018-06-29T23:48:44.886Z,18.92
2018-06-29T23:53:39.536Z,18.77
2018-06-29T23:58:34.236Z,18.83
